createdAt,value
2017-12-22T00:02:11.647Z,7.40
2017-12-22T00:04:39.180Z,7.40
2017-12-22T00:07:06.664Z,7.50
2017-12-22T00:09:34.070Z,7.50
2017-12-22T00:12:01.580Z,7.40
2017-12-22T00:14:29.002Z,7.40
2017-12-22T00:16:56.520Z,7.40
2017-12-22T00:19:23.970Z,7.40
2017-12-22T00:21:52.175Z,7.50
2017-12-22T00:24:19.642Z,7.40
2017-12-22T00:26:47.136Z,7.40
2017-12-22T00:29:14.552Z,7.40
2017-12-22T00:31:42.735Z,7.40
2017-12-22T00:34:10.921Z,7.30
2017-12-22T00:36:39.121Z,7.30
2017-12-22T00:39:07.318Z,7.30
2017-12-22T00:41:34.784Z,7.30
2017-12-22T00:44:02.210Z,7.30
2017-12-22T00:46:29.624Z,7.30
2017-12-22T00:48:57.046Z,7.20
2017-12-22T00:51:24.686Z,7.20
2017-12-22T00:53:52.134Z,7.20
2017-12-22T00:56:19.539Z,7.10
2017-12-22T00:58:46.963Z,7.20
2017-12-22T01:01:14.378Z,7.10
2017-12-22T01:03:41.809Z,7.10
2017-12-22T01:06:09.224Z,7.10
2017-12-22T01:08:36.750Z,7.10
2017-12-22T01:11:04.157Z,7.10
2017-12-22T01:13:31.585Z,7.00
2017-12-22T01:16:04.707Z,7.00
2017-12-22T01:18:37.845Z,7.10
2017-12-22T01:21:05.267Z,7.10
2017-12-22T01:23:32.718Z,7.10
2017-12-22T01:26:00.142Z,7.10
2017-12-22T01:28:27.686Z,7.00
2017-12-22T01:30:55.135Z,7.00
2017-12-22T01:33:22.549Z,7.00
2017-12-22T01:35:49.971Z,7.10
2017-12-22T01:38:17.373Z,7.10
2017-12-22T01:40:44.805Z,7.10
2017-12-22T01:43:12.218Z,7.10
2017-12-22T01:45:39.645Z,7.00
2017-12-22T01:48:07.057Z,7.00
2017-12-22T01:50:34.471Z,7.00
2017-12-22T01:53:01.886Z,7.00
2017-12-22T01:55:29.426Z,7.00
2017-12-22T01:57:56.878Z,7.00
2017-12-22T02:00:24.351Z,6.90
2017-12-22T02:02:51.758Z,6.90
2017-12-22T02:05:19.208Z,6.90
2017-12-22T02:07:46.620Z,6.80
2017-12-22T02:10:14.082Z,6.80
2017-12-22T02:12:41.506Z,6.80
2017-12-22T02:15:08.953Z,6.80
2017-12-22T02:17:36.368Z,6.80
2017-12-22T02:20:03.796Z,6.80
2017-12-22T02:22:31.266Z,6.80
2017-12-22T02:24:58.686Z,6.70
2017-12-22T02:27:26.127Z,6.80
2017-12-22T02:29:53.566Z,6.80
2017-12-22T02:32:21.040Z,6.80
2017-12-22T02:34:49.196Z,6.80
2017-12-22T02:37:17.407Z,6.80
2017-12-22T02:39:44.903Z,6.80
2017-12-22T02:42:12.321Z,6.80
2017-12-22T02:44:40.514Z,6.90
2017-12-22T02:47:07.943Z,6.90
2017-12-22T02:49:35.348Z,6.80
2017-12-22T02:52:03.522Z,6.80
2017-12-22T02:54:31.691Z,6.80
2017-12-22T02:56:59.202Z,6.80
2017-12-22T02:59:26.692Z,6.90
2017-12-22T03:01:54.103Z,6.90
2017-12-22T03:04:21.522Z,6.90
2017-12-22T03:06:48.983Z,6.90
2017-12-22T03:09:16.416Z,6.90
2017-12-22T03:11:43.821Z,6.90
2017-12-22T03:14:11.300Z,6.90
2017-12-22T03:16:38.745Z,6.90
2017-12-22T03:19:06.157Z,6.90
2017-12-22T03:21:33.614Z,6.90
2017-12-22T03:24:01.056Z,6.90
2017-12-22T03:26:28.468Z,6.90
2017-12-22T03:28:55.899Z,6.90
2017-12-22T03:31:23.291Z,6.90
2017-12-22T03:33:50.862Z,6.90
2017-12-22T03:36:18.310Z,6.90
2017-12-22T03:38:45.770Z,6.90
2017-12-22T03:41:13.181Z,6.90
2017-12-22T03:43:40.613Z,6.90
2017-12-22T03:46:08.018Z,6.90
2017-12-22T03:48:35.444Z,6.90
2017-12-22T03:51:02.912Z,6.90
2017-12-22T03:53:30.374Z,6.90
2017-12-22T03:55:57.800Z,6.80
2017-12-22T03:58:25.221Z,6.80
2017-12-22T04:00:52.686Z,6.70
2017-12-22T04:03:20.126Z,6.80
2017-12-22T04:05:48.306Z,6.80
2017-12-22T04:08:16.516Z,6.70
2017-12-22T04:10:43.930Z,6.70
2017-12-22T04:13:11.341Z,6.80
2017-12-22T04:15:39.517Z,6.70
2017-12-22T04:18:07.698Z,6.70
2017-12-22T04:20:35.874Z,6.70
2017-12-22T04:23:03.281Z,6.70
2017-12-22T04:25:30.701Z,6.70
2017-12-22T04:27:58.124Z,6.70
2017-12-22T04:30:25.534Z,6.70
2017-12-22T04:32:54.500Z,6.70
2017-12-22T04:35:22.674Z,6.70
2017-12-22T04:37:50.080Z,6.70
2017-12-22T04:40:17.495Z,6.70
2017-12-22T04:42:45.726Z,6.70
2017-12-22T04:45:13.143Z,6.70
2017-12-22T04:47:41.332Z,6.70
2017-12-22T04:50:09.519Z,6.70
2017-12-22T04:52:37.721Z,6.70
2017-12-22T04:55:05.190Z,6.60
2017-12-22T04:57:32.602Z,6.60
2017-12-22T05:00:00.048Z,6.60
2017-12-22T05:02:27.459Z,6.60
2017-12-22T05:04:54.880Z,6.60
2017-12-22T05:07:22.269Z,6.60
2017-12-22T05:09:49.687Z,6.60
2017-12-22T05:12:17.104Z,6.60
2017-12-22T05:14:44.514Z,6.60
2017-12-22T05:17:12.695Z,6.60
2017-12-22T05:19:40.867Z,6.60
2017-12-22T05:22:08.286Z,6.60
2017-12-22T05:24:35.694Z,6.60
2017-12-22T05:27:03.106Z,6.60
2017-12-22T05:29:30.517Z,6.60
2017-12-22T05:31:57.948Z,6.60
2017-12-22T05:34:25.349Z,6.60
2017-12-22T05:36:52.778Z,6.60
2017-12-22T05:39:20.190Z,6.60
2017-12-22T05:41:47.610Z,6.60
2017-12-22T05:44:15.035Z,6.60
2017-12-22T05:46:42.434Z,6.60
2017-12-22T05:49:10.684Z,6.70
2017-12-22T05:51:38.119Z,6.60
2017-12-22T05:54:05.505Z,6.70
2017-12-22T05:56:32.931Z,6.60
2017-12-22T05:59:00.406Z,6.60
2017-12-22T06:01:27.879Z,6.60
2017-12-22T06:03:55.286Z,6.60
2017-12-22T06:06:22.698Z,6.60
2017-12-22T06:08:50.114Z,6.60
2017-12-22T06:11:17.541Z,6.60
2017-12-22T06:13:45.710Z,6.60
2017-12-22T06:16:14.896Z,6.60
2017-12-22T06:18:42.305Z,6.60
2017-12-22T06:21:09.729Z,6.60
2017-12-22T06:23:37.250Z,6.60
2017-12-22T06:26:04.673Z,6.60
2017-12-22T06:28:32.077Z,6.60
2017-12-22T06:30:59.493Z,6.60
2017-12-22T06:33:26.918Z,6.60
2017-12-22T06:35:54.326Z,6.60
2017-12-22T06:38:21.754Z,6.60
2017-12-22T06:40:49.165Z,6.60
2017-12-22T06:43:16.581Z,6.60
2017-12-22T06:45:44.787Z,6.60
2017-12-22T06:48:12.966Z,6.60
2017-12-22T06:50:40.390Z,6.60
2017-12-22T06:53:07.797Z,6.60
2017-12-22T06:55:35.219Z,6.60
2017-12-22T06:58:02.639Z,6.50
2017-12-22T07:00:30.041Z,6.50
2017-12-22T07:02:57.454Z,6.60
2017-12-22T07:05:25.670Z,6.60
2017-12-22T07:07:53.843Z,6.50
2017-12-22T07:10:21.242Z,6.50
2017-12-22T07:12:48.653Z,6.50
2017-12-22T07:15:16.837Z,6.50
2017-12-22T07:17:44.242Z,6.50
2017-12-22T07:20:11.708Z,6.50
2017-12-22T07:22:39.865Z,6.50
2017-12-22T07:25:07.351Z,6.50
2017-12-22T07:27:34.766Z,6.50
2017-12-22T07:30:02.185Z,6.40
2017-12-22T07:32:29.606Z,6.40
2017-12-22T07:34:57.021Z,6.40
2017-12-22T07:37:24.434Z,6.40
2017-12-22T07:39:51.861Z,6.50
2017-12-22T07:42:19.269Z,6.50
2017-12-22T07:44:46.707Z,6.50
2017-12-22T07:47:14.171Z,6.50
2017-12-22T07:49:41.606Z,6.50
2017-12-22T07:52:09.014Z,6.50
2017-12-22T07:54:36.579Z,6.50
2017-12-22T07:57:03.991Z,6.50
2017-12-22T07:59:31.423Z,6.50
2017-12-22T08:01:58.882Z,6.60
2017-12-22T08:04:26.284Z,6.60
2017-12-22T08:06:53.694Z,6.60
2017-12-22T08:09:21.907Z,6.60
2017-12-22T08:11:50.070Z,6.60
2017-12-22T08:14:18.260Z,6.60
2017-12-22T08:16:46.446Z,6.60
2017-12-22T08:19:13.936Z,6.60
2017-12-22T08:21:42.088Z,6.60
2017-12-22T08:24:10.257Z,6.60
2017-12-22T08:26:37.766Z,6.60
2017-12-22T08:29:05.173Z,6.60
2017-12-22T08:31:32.589Z,6.60
2017-12-22T08:34:00.077Z,6.60
2017-12-22T08:36:27.490Z,6.70
2017-12-22T08:38:55.022Z,6.70
2017-12-22T08:41:22.431Z,6.70
2017-12-22T08:43:49.857Z,6.70
2017-12-22T08:46:17.267Z,6.70
2017-12-22T08:48:44.674Z,6.70
2017-12-22T08:51:12.085Z,6.70
2017-12-22T08:53:40.422Z,6.80
2017-12-22T08:56:08.599Z,6.80
2017-12-22T08:58:36.779Z,6.80
2017-12-22T09:01:04.998Z,6.80
2017-12-22T09:03:32.482Z,6.80
2017-12-22T09:05:59.882Z,6.80
2017-12-22T09:08:27.294Z,6.80
2017-12-22T09:10:54.780Z,6.90
2017-12-22T09:13:22.285Z,6.80
2017-12-22T09:15:49.655Z,6.80
2017-12-22T09:18:17.062Z,6.80
2017-12-22T09:20:45.249Z,6.80
2017-12-22T09:23:13.419Z,6.90
2017-12-22T09:25:40.930Z,6.80
2017-12-22T09:28:08.338Z,6.90
2017-12-22T09:30:35.750Z,6.80
2017-12-22T09:33:03.272Z,6.80
2017-12-22T09:35:30.656Z,6.80
2017-12-22T09:37:58.164Z,6.80
2017-12-22T09:40:25.566Z,6.90
2017-12-22T09:42:52.975Z,6.80
2017-12-22T09:45:21.187Z,6.90
2017-12-22T09:47:49.374Z,6.90
2017-12-22T09:50:16.789Z,7.00
2017-12-22T09:52:44.211Z,7.00
2017-12-22T09:55:11.619Z,7.00
2017-12-22T09:57:39.027Z,7.00
2017-12-22T10:00:07.206Z,7.00
2017-12-22T10:02:35.381Z,7.00
2017-12-22T10:05:03.704Z,7.00
2017-12-22T10:07:31.870Z,6.90
2017-12-22T10:10:00.042Z,6.90
2017-12-22T10:12:28.229Z,6.90
2017-12-22T10:14:56.410Z,6.90
2017-12-22T10:17:24.598Z,6.90
2017-12-22T10:19:52.782Z,6.90
2017-12-22T10:22:20.998Z,6.90
2017-12-22T10:24:48.461Z,6.90
2017-12-22T10:27:15.874Z,7.00
2017-12-22T10:29:43.286Z,7.00
2017-12-22T10:32:11.492Z,7.00
2017-12-22T10:34:38.894Z,7.00
2017-12-22T10:37:06.331Z,7.10
2017-12-22T10:39:33.739Z,7.10
2017-12-22T10:42:01.157Z,7.10
2017-12-22T10:44:28.568Z,7.10
2017-12-22T10:46:55.975Z,7.10
2017-12-22T10:49:24.178Z,7.10
2017-12-22T10:51:51.583Z,7.10
2017-12-22T10:54:19.057Z,7.10
2017-12-22T10:56:46.449Z,7.00
2017-12-22T10:59:13.862Z,7.00
2017-12-22T11:01:41.285Z,7.00
2017-12-22T11:04:08.696Z,7.10
2017-12-22T11:06:36.105Z,7.10
2017-12-22T11:09:03.522Z,7.10
2017-12-22T11:11:30.934Z,7.00
2017-12-22T11:13:58.366Z,7.00
2017-12-22T11:16:25.771Z,6.90
2017-12-22T11:18:53.178Z,6.70
2017-12-22T11:21:21.366Z,6.70
2017-12-22T11:23:49.546Z,6.70
2017-12-22T11:26:17.750Z,6.80
2017-12-22T11:28:45.170Z,6.80
2017-12-22T11:31:12.616Z,6.80
2017-12-22T11:33:40.175Z,6.90
2017-12-22T11:36:07.633Z,6.90
2017-12-22T11:38:35.033Z,6.90
2017-12-22T11:41:02.475Z,6.90
2017-12-22T11:43:30.044Z,6.90
2017-12-22T11:45:57.441Z,6.90
2017-12-22T11:48:24.902Z,6.80
2017-12-22T11:50:52.290Z,6.80
2017-12-22T11:53:19.703Z,6.80
2017-12-22T11:55:47.123Z,6.70
2017-12-22T11:58:14.574Z,6.70
2017-12-22T12:00:42.010Z,6.70
2017-12-22T12:03:09.579Z,6.70
2017-12-22T12:05:36.987Z,6.70
2017-12-22T12:08:04.420Z,6.60
2017-12-22T12:10:31.830Z,6.60
2017-12-22T12:12:59.248Z,6.60
2017-12-22T12:15:27.409Z,6.60
2017-12-22T12:17:55.631Z,6.50
2017-12-22T12:20:23.035Z,6.50
2017-12-22T12:22:50.447Z,6.50
2017-12-22T12:25:18.642Z,6.50
2017-12-22T12:27:46.059Z,6.50
2017-12-22T12:30:13.508Z,6.60
2017-12-22T12:32:40.938Z,6.60
2017-12-22T12:35:08.348Z,6.60
2017-12-22T12:37:35.767Z,6.60
2017-12-22T12:40:03.982Z,6.70
2017-12-22T12:42:32.134Z,6.60
2017-12-22T12:45:00.350Z,6.60
2017-12-22T12:47:28.530Z,6.60
2017-12-22T12:49:56.008Z,6.60
2017-12-22T12:52:24.158Z,6.60
2017-12-22T12:54:52.367Z,6.50
2017-12-22T12:57:19.790Z,6.50
2017-12-22T12:59:47.210Z,6.50
2017-12-22T13:02:14.683Z,6.60
2017-12-22T13:04:42.864Z,6.60
2017-12-22T13:07:10.290Z,6.60
2017-12-22T13:09:37.707Z,6.60
2017-12-22T13:12:05.118Z,6.50
2017-12-22T13:14:32.530Z,6.50
2017-12-22T13:16:59.937Z,6.50
2017-12-22T13:19:27.365Z,6.50
2017-12-22T13:21:54.843Z,6.40
2017-12-22T13:24:22.258Z,6.40
2017-12-22T13:26:49.679Z,6.40
2017-12-22T13:29:17.098Z,6.40
2017-12-22T13:31:44.621Z,6.40
2017-12-22T13:34:12.029Z,6.40
2017-12-22T13:36:39.426Z,6.40
2017-12-22T13:39:07.627Z,6.30
2017-12-22T13:41:35.047Z,6.30
2017-12-22T13:44:02.492Z,6.30
2017-12-22T13:46:29.916Z,6.30
2017-12-22T13:48:58.102Z,6.30
2017-12-22T13:51:26.275Z,6.30
2017-12-22T13:53:54.502Z,6.30
2017-12-22T13:56:21.906Z,6.30
2017-12-22T13:58:49.329Z,6.40
2017-12-22T14:01:16.797Z,6.40
2017-12-22T14:03:44.222Z,6.40
2017-12-22T14:06:11.641Z,6.40
2017-12-22T14:08:39.111Z,6.40
2017-12-22T14:11:06.507Z,6.30
2017-12-22T14:13:33.918Z,6.30
2017-12-22T14:16:02.098Z,6.40
2017-12-22T14:18:29.501Z,6.30
2017-12-22T14:20:56.967Z,6.40
2017-12-22T14:23:25.137Z,6.30
2017-12-22T14:25:53.338Z,6.30
2017-12-22T14:28:21.493Z,6.30
2017-12-22T14:30:49.695Z,6.30
2017-12-22T14:33:17.129Z,6.30
2017-12-22T14:35:44.533Z,6.30
2017-12-22T14:38:11.967Z,6.20
2017-12-22T14:40:40.970Z,6.20
2017-12-22T14:43:08.378Z,6.20
2017-12-22T14:45:35.794Z,6.30
2017-12-22T14:48:03.227Z,6.20
2017-12-22T14:50:30.638Z,6.20
2017-12-22T14:52:58.041Z,6.20
2017-12-22T14:55:25.450Z,6.20
2017-12-22T14:57:52.886Z,6.20
2017-12-22T15:00:20.308Z,6.20
2017-12-22T15:02:47.711Z,6.20
2017-12-22T15:05:15.938Z,6.20
2017-12-22T15:07:43.332Z,6.10
2017-12-22T15:10:10.960Z,6.10
2017-12-22T15:12:39.119Z,6.20
2017-12-22T15:15:07.313Z,6.10
2017-12-22T15:17:34.722Z,6.10
2017-12-22T15:20:02.142Z,6.10
2017-12-22T15:22:30.324Z,6.10
2017-12-22T15:24:58.568Z,6.10
2017-12-22T15:27:26.008Z,6.10
2017-12-22T15:29:53.406Z,6.20
2017-12-22T15:32:20.889Z,6.20
2017-12-22T15:34:48.310Z,6.20
2017-12-22T15:37:15.881Z,6.20
2017-12-22T15:39:44.050Z,6.10
2017-12-22T15:42:11.462Z,6.10
2017-12-22T15:44:38.874Z,6.20
2017-12-22T15:47:07.066Z,6.20
2017-12-22T15:49:34.558Z,6.20
2017-12-22T15:52:01.958Z,6.20
2017-12-22T15:54:29.386Z,6.20
2017-12-22T15:56:57.560Z,6.20
2017-12-22T15:59:24.981Z,6.20
2017-12-22T16:01:52.390Z,6.20
2017-12-22T16:04:20.564Z,6.20
2017-12-22T16:06:48.751Z,6.20
2017-12-22T16:09:16.153Z,6.20
2017-12-22T16:11:43.563Z,6.20
2017-12-22T16:14:15.069Z,6.20
2017-12-22T16:16:43.246Z,6.20
2017-12-22T16:19:11.460Z,6.20
2017-12-22T16:21:38.912Z,6.20
2017-12-22T16:24:06.485Z,6.20
2017-12-22T16:26:33.889Z,6.30
2017-12-22T16:29:01.333Z,6.30
2017-12-22T16:31:29.518Z,6.30
2017-12-22T16:33:56.993Z,6.20
2017-12-22T16:36:24.374Z,6.30
2017-12-22T16:38:51.823Z,6.30
2017-12-22T16:41:20.001Z,6.30
2017-12-22T16:43:47.482Z,6.30
2017-12-22T16:46:14.900Z,6.30
2017-12-22T16:48:42.310Z,6.30
2017-12-22T16:51:09.725Z,6.20
2017-12-22T16:53:37.133Z,6.30
2017-12-22T16:56:05.317Z,6.30
2017-12-22T16:58:32.742Z,6.30
2017-12-22T17:01:00.921Z,6.30
2017-12-22T17:03:28.328Z,6.30
2017-12-22T17:05:56.528Z,6.30
2017-12-22T17:08:23.938Z,6.30
2017-12-22T17:10:51.358Z,6.30
2017-12-22T17:13:19.534Z,6.30
2017-12-22T17:15:47.710Z,6.30
2017-12-22T17:18:15.121Z,6.30
2017-12-22T17:20:42.586Z,6.30
2017-12-22T17:23:10.011Z,6.30
2017-12-22T17:25:37.425Z,6.30
2017-12-22T17:28:04.826Z,6.30
2017-12-22T17:30:32.240Z,6.30
2017-12-22T17:33:00.414Z,6.30
2017-12-22T17:35:28.593Z,6.30
2017-12-22T17:37:56.765Z,6.30
2017-12-22T17:40:24.184Z,6.30
2017-12-22T17:42:51.590Z,6.30
2017-12-22T17:45:19.001Z,6.40
2017-12-22T17:47:46.488Z,6.30
2017-12-22T17:50:14.674Z,6.30
2017-12-22T17:52:42.083Z,6.30
2017-12-22T17:55:09.514Z,6.30
2017-12-22T17:57:36.919Z,6.30
2017-12-22T18:00:04.352Z,6.30
2017-12-22T18:02:31.754Z,6.30
2017-12-22T18:04:59.281Z,6.40
2017-12-22T18:07:27.447Z,6.30
2017-12-22T18:09:55.646Z,6.30
2017-12-22T18:12:23.055Z,6.30
2017-12-22T18:14:50.593Z,6.30
2017-12-22T18:17:18.742Z,6.30
2017-12-22T18:19:46.930Z,6.30
2017-12-22T18:22:14.334Z,6.30
2017-12-22T18:24:41.754Z,6.30
2017-12-22T18:27:09.166Z,6.30
2017-12-22T18:29:36.588Z,6.30
2017-12-22T18:32:03.990Z,6.30
2017-12-22T18:34:31.418Z,6.30
2017-12-22T18:36:58.846Z,6.30
2017-12-22T18:39:26.275Z,6.30
2017-12-22T18:41:54.445Z,6.30
2017-12-22T18:44:21.860Z,6.30
2017-12-22T18:46:49.318Z,6.30
2017-12-22T18:49:16.796Z,6.30
2017-12-22T18:51:44.203Z,6.30
2017-12-22T18:54:11.636Z,6.30
2017-12-22T18:56:39.119Z,6.30
2017-12-22T18:59:06.510Z,6.30
2017-12-22T19:01:33.925Z,6.30
2017-12-22T19:04:01.417Z,6.30
2017-12-22T19:06:28.814Z,6.30
2017-12-22T19:08:56.246Z,6.30
2017-12-22T19:11:23.658Z,6.30
2017-12-22T19:13:51.066Z,6.30
2017-12-22T19:16:18.550Z,6.40
2017-12-22T19:18:46.698Z,6.30
2017-12-22T19:21:14.874Z,6.40
2017-12-22T19:23:43.793Z,6.30
2017-12-22T19:26:12.011Z,6.40
2017-12-22T19:28:39.476Z,6.30
2017-12-22T19:31:06.870Z,6.30
2017-12-22T19:33:34.294Z,6.30
2017-12-22T19:36:02.462Z,6.30
2017-12-22T19:38:30.678Z,6.30
2017-12-22T19:40:58.088Z,6.30
2017-12-22T19:43:25.491Z,6.30
2017-12-22T19:45:53.673Z,6.30
2017-12-22T19:48:21.177Z,6.30
2017-12-22T19:50:48.597Z,6.30
2017-12-22T19:53:15.997Z,6.30
2017-12-22T19:55:43.494Z,6.30
2017-12-22T19:58:10.914Z,6.20
2017-12-22T20:00:39.129Z,6.20
2017-12-22T20:03:18.488Z,6.20
2017-12-22T20:05:45.901Z,6.20
2017-12-22T20:08:13.436Z,6.30
2017-12-22T20:10:40.849Z,6.20
2017-12-22T20:13:08.264Z,6.20
2017-12-22T20:15:35.683Z,6.20
2017-12-22T20:18:03.082Z,6.20
2017-12-22T20:20:30.553Z,6.20
2017-12-22T20:22:57.968Z,6.20
2017-12-22T20:25:25.495Z,6.10
2017-12-22T20:27:52.971Z,6.10
2017-12-22T20:30:20.442Z,6.10
2017-12-22T20:32:48.604Z,6.10
2017-12-22T20:35:16.793Z,6.10
2017-12-22T20:37:44.967Z,6.10
2017-12-22T20:40:13.151Z,6.10
2017-12-22T20:42:41.372Z,6.00
2017-12-22T20:45:09.535Z,6.10
2017-12-22T20:47:37.705Z,6.00
2017-12-22T20:50:05.929Z,6.00
2017-12-22T20:52:34.079Z,6.00
2017-12-22T20:55:01.490Z,6.00
2017-12-22T20:57:28.922Z,6.00
2017-12-22T20:59:57.099Z,6.00
2017-12-22T21:02:25.275Z,6.00
2017-12-22T21:04:52.690Z,6.00
2017-12-22T21:07:20.105Z,6.00
2017-12-22T21:09:47.518Z,6.00
2017-12-22T21:12:14.941Z,6.00
2017-12-22T21:14:42.459Z,6.00
2017-12-22T21:17:09.943Z,6.00
2017-12-22T21:19:37.354Z,6.00
2017-12-22T21:22:04.885Z,6.00
2017-12-22T21:24:32.293Z,6.00
2017-12-22T21:26:59.705Z,6.00
2017-12-22T21:29:27.122Z,6.00
2017-12-22T21:31:54.638Z,6.00
2017-12-22T21:34:22.113Z,6.00
2017-12-22T21:36:49.531Z,6.00
2017-12-22T21:39:16.946Z,5.90
2017-12-22T21:41:44.386Z,5.90
2017-12-22T21:44:12.562Z,5.90
2017-12-22T21:46:40.743Z,5.90
2017-12-22T21:49:08.146Z,5.90
2017-12-22T21:51:35.570Z,5.90
2017-12-22T21:54:03.000Z,5.90
2017-12-22T21:56:30.461Z,5.90
2017-12-22T21:58:57.946Z,5.90
2017-12-22T22:01:25.389Z,5.90
2017-12-22T22:03:52.868Z,5.90
2017-12-22T22:06:20.267Z,5.80
2017-12-22T22:08:47.677Z,5.90
2017-12-22T22:11:15.866Z,5.80
2017-12-22T22:13:44.065Z,5.90
2017-12-22T22:16:11.542Z,5.80
2017-12-22T22:18:39.113Z,5.90
2017-12-22T22:21:07.299Z,5.90
2017-12-22T22:23:35.477Z,5.90
2017-12-22T22:26:02.911Z,5.90
2017-12-22T22:28:31.086Z,5.90
2017-12-22T22:30:58.610Z,5.90
2017-12-22T22:33:26.006Z,5.90
2017-12-22T22:35:53.449Z,5.90
2017-12-22T22:38:20.849Z,5.90
2017-12-22T22:40:48.278Z,5.90
2017-12-22T22:43:15.698Z,5.90
2017-12-22T22:45:43.113Z,5.80
2017-12-22T22:48:10.527Z,5.90
2017-12-22T22:50:38.060Z,5.90
2017-12-22T22:53:05.627Z,5.80
2017-12-22T22:55:33.781Z,5.90
2017-12-22T22:58:01.191Z,5.80
2017-12-22T23:00:28.754Z,5.90
2017-12-22T23:02:56.905Z,5.90
2017-12-22T23:05:25.118Z,5.90
2017-12-22T23:07:52.544Z,5.90
2017-12-22T23:10:19.958Z,5.90
2017-12-22T23:12:47.373Z,5.90
2017-12-22T23:15:14.929Z,5.80
2017-12-22T23:17:42.343Z,5.80
2017-12-22T23:20:10.509Z,5.80
2017-12-22T23:22:38.695Z,5.90
2017-12-22T23:25:06.118Z,5.80
2017-12-22T23:27:33.529Z,5.80
2017-12-22T23:30:01.035Z,5.80
2017-12-22T23:32:28.461Z,5.80
2017-12-22T23:34:55.881Z,5.80
2017-12-22T23:37:23.342Z,5.80
2017-12-22T23:39:50.757Z,5.80
2017-12-22T23:42:18.286Z,5.80
2017-12-22T23:44:45.701Z,5.80
2017-12-22T23:47:13.114Z,5.80
2017-12-22T23:49:40.688Z,5.80
2017-12-22T23:52:08.141Z,5.80
2017-12-22T23:54:35.558Z,5.80
2017-12-22T23:57:03.094Z,5.80
2017-12-22T23:59:30.553Z,5.80
